Kindred, ND

11:23 PM CST on November 23, 2014 (GMT -0600)
West Fargo Official | Change Station
CLOSE
Current Station
Personal Weather Station
Location: West Fargo, ND
Elevation: 900 ft
Nearby Weather Stations

Elev 900 ft 46.82 °N, 96.92 °W | Updated 3 minutes ago

Snow
Snow
16.5 °F
Feels Like 2 °F
N
14.0
Wind Variable Wind from NW

Today
High -- | Low -- °F
--% Chance of Precip.
Yesterday
High -- | Low -- °F
Precip. -- in
7:41 AM 4:47 PM
Waxing Crescent, 4% visible
Pressure 29.62 in
Visibility 6.0 miles
Clouds Few 1500 ft
Overcast 2300 ft
Windchill 2 °F
Dew Point 14 °F
Humidity 91%
Rainfall 0.00 in
Snow Depth Not available.
UV 0 out of 12
Pollen .10 out of 12
Air Quality Not available.
Flu Activity Not available.
METAR KFAR 240453Z AUTO 33019KT 6SM -SN FEW015 OVC023 M07/M10 A2958 RMK AO2 PK WND 33026/0354 SLP029 P0000 T10721100 TSNO

More Conditions Fewer Conditions

Pressure 29.62 in
Visibility 6.0 miles
Clouds Few 1500 ft
Overcast 2300 ft
Windchill 2 °F
Dew Point 14 °F
Humidity 91%
Rainfall 0.00 in
Snow Depth Not available.
UV 0 out of 12
Pollen .10 out of 12
Air Quality Not available.
Flu Activity Not available.
METAR KFAR 240453Z AUTO 33019KT 6SM -SN FEW015 OVC023 M07/M10 A2958 RMK AO2 PK WND 33026/0354 SLP029 P0000 T10721100 TSNO

More Conditions Fewer Conditions

10-Day Weather Forecast

Almanac

Astronomy

Nov. 23, 2014 Rise Set
Actual Time
Civil Twilight
Nautical Twilight
Astronomical Twilight
Moon
Length of Visible Light
Length of Day
Tomorrow will be .
, % of the Moon is Illuminated

Today's Extremes

State Highs State Lows

Community

WunderPhotos

Upload Photos

1,773,269 photos uploaded!

WunderBlogs® & News

Nearby

Air Quality

  Air Quality AQ Index Pollutant
Not available.

Snow Depth

Station Depth Elevation

Earthquake Activity

City Distance Mag. Time & Date
Minimum magnitude displayed is 2.5.

Coastal Water Temperatures

Place Temperature

Nearby Weather Stations